Hlavní strana
METAR-TAF:

METAR-TAF

Letiště :

Båtsfjord, Norsko

zeměpisná šířka: 70-38N, zeměpisná délka: 029-44E, výška: 10 m

Aktuální stav počasí

Zpráva byla vytvořena před 6 hodinami a 29 minutami, v 20:50 UTC
Jihojihozápadní vítr 10 kt
Teplota 0°C
Vlhkost vzduchu 93%
Tlak 998 hPa
Viditelnost 10 km a více
Oblačno až skoro zataženo ve výšce 900 ft

METAR: ENBS 182050Z 21010KT 9999 BKN009 00/M01 Q0998

Čas: 05:19 (03:19 UTC)


TAF: chybějící

Stav a předpovědi počasí z více než 4 000 letišť (zprávy METAR a TAF).

Červené a žluté tečky na mapě představují dostupné meteorologické stanice.

Když kurzor umístíte na tečku, zobrazí se název stanice.

Pak kliknutím zobrazíte stav a předpověď počasí.

Chcete-li změnit mapu, kliknutím na zelené tlačítko se znaménkem +mapu přiblížíte, kliknutím na zelené tlačítko se znaménkem – mapu oddálíte a kliknutím na zelené šipky přejdete na sousední mapy.


METAR-TAF: